Time;durP1;ratioP1;P1;durP2;ratioP2;P2;SDS_P1;SDS_P2;PMS_P1;PMS_P2;Temp;Humidity;BMP_temperature;BMP_pressure;BME280_temperature;BME280_humidity;BME280_pressure;Samples;Min_cycle;Max_cycle;Signal;HPM_P1;HPM_P2
2022/01/23 00:00:04;;;;;;;10.75;4.22;;;;;;;5.18;100.00;103434.59;6267041;22;20477;-78
2022/01/23 00:02:39;;;;;;;10.38;3.38;;;;;;;5.20;100.00;103453.00;6274074;22;20024;-81
2022/01/23 00:05:08;;;;;;;9.10;3.13;;;;;;;5.20;100.00;103446.06;6214373;22;20023;-80
2022/01/23 00:07:39;;;;;;;22.05;4.35;;;;;;;5.19;100.00;103440.72;6236531;22;20047;-79
2022/01/23 00:10:11;;;;;;;13.82;4.05;;;;;;;5.19;100.00;103432.88;6250139;22;20027;-79
2022/01/23 00:12:54;;;;;;;11.13;3.75;;;;;;;5.18;100.00;103431.97;6266905;22;20012;-79
2022/01/23 00:18:11;;;;;;;10.85;4.32;;;;;;;5.17;100.00;103431.88;6280064;22;20016;-80
2022/01/23 00:20:39;;;;;;;12.18;3.70;;;;;;;5.16;100.00;103430.97;6222308;22;20350;-79
2022/01/23 00:31:41;;;;;;;15.10;3.63;;;;;;;5.15;100.00;103439.59;6253743;22;20023;-79
2022/01/23 00:34:10;;;;;;;13.32;3.97;;;;;;;5.16;100.00;103443.09;6269518;22;20027;-79
2022/01/23 00:36:39;;;;;;;10.93;4.32;;;;;;;5.17;100.00;103426.63;6239300;22;20028;-79
2022/01/23 00:39:09;;;;;;;8.48;3.75;;;;;;;5.17;100.00;103434.47;6257131;22;20031;-79
2022/01/23 00:41:38;;;;;;;9.57;3.47;;;;;;;5.15;100.00;103436.97;6253925;22;20023;-79
2022/01/23 00:44:07;;;;;;;21.77;4.32;;;;;;;5.14;100.00;103439.50;6254140;22;20224;-79
2022/01/23 00:46:39;;;;;;;10.30;4.03;;;;;;;5.14;100.00;103444.72;6245098;22;20030;-80
2022/01/23 00:51:40;;;;;;;12.52;3.90;;;;;;;5.16;100.00;103437.88;6262758;22;20027;-79
2022/01/23 00:54:26;;;;;;;11.40;4.15;;;;;;;5.14;100.00;103434.25;6310059;22;20022;-79
2022/01/23 00:56:55;;;;;;;11.05;3.47;;;;;;;5.16;100.00;103438.81;6230177;22;20192;-79
2022/01/23 00:59:23;;;;;;;13.48;3.42;;;;;;;5.16;100.00;103430.03;6253615;22;20019;-81
2022/01/23 01:01:52;;;;;;;8.88;3.85;;;;;;;5.14;100.00;103429.97;6244430;22;20042;-79
2022/01/23 01:04:20;;;;;;;14.52;3.90;;;;;;;5.14;100.00;103429.03;6269606;22;20020;-79
2022/01/23 01:06:49;;;;;;;10.40;3.80;;;;;;;5.12;100.00;103435.88;6213991;22;20520;-80
2022/01/23 01:09:18;;;;;;;10.13;3.05;;;;;;;5.11;100.00;103436.69;6252017;22;20011;-79
2022/01/23 01:12:08;;;;;;;5.90;3.53;;;;;;;5.10;100.00;103427.03;6237350;22;20019;-81
2022/01/23 01:17:23;;;;;;;9.77;3.78;;;;;;;5.09;100.00;103431.34;6247533;22;20020;-80
2022/01/23 01:31:20;;;;;;;11.98;3.30;;;;;;;5.08;100.00;103451.38;6235354;22;20023;-80
2022/01/23 01:34:04;;;;;;;8.57;3.15;;;;;;;5.08;100.00;103453.97;6252686;22;20228;-79
2022/01/23 01:36:47;;;;;;;11.70;3.63;;;;;;;5.08;100.00;103451.38;6252368;22;20012;-79
2022/01/23 01:39:25;;;;;;;8.05;3.22;;;;;;;5.09;100.00;103452.25;6264974;22;20011;-79
2022/01/23 01:41:57;;;;;;;;;;;;;;;5.08;100.00;103450.44;6249526;22;20052;-79
2022/01/23 01:44:30;;;;;;;14.20;4.15;;;;;;;5.07;100.00;103438.19;6254362;22;19930;-81
2022/01/23 01:47:17;;;;;;;8.75;3.50;;;;;;;5.06;100.00;103445.09;6270566;22;20345;-79
2022/01/23 01:49:51;;;;;;;8.40;2.97;;;;;;;5.05;100.00;103440.69;6234514;22;20224;-79
2022/01/23 01:52:19;;;;;;;11.30;3.28;;;;;;;5.04;100.00;103449.31;6228914;22;20445;-79
2022/01/23 01:54:57;;;;;;;6.03;2.75;;;;;;;5.04;100.00;103453.66;6239082;22;20030;-79
2022/01/23 01:57:31;;;;;;;4.53;2.50;;;;;;;5.03;100.00;103452.75;6256403;22;20022;-79
2022/01/23 02:08:40;;;;;;;6.05;2.78;;;;;;;5.04;100.00;103446.72;6256611;22;20020;-79
2022/01/23 02:11:15;;;;;;;9.35;2.90;;;;;;;5.04;100.00;103449.31;6272855;22;20026;-79
2022/01/23 02:53:13;;;;;;;2.80;2.10;;;;;;;5.11;100.00;103491.59;6232471;22;20019;-78
2022/01/23 02:55:40;;;;;;;4.45;2.92;;;;;;;5.11;100.00;103489.88;6257098;22;20020;-79
2022/01/23 02:58:11;;;;;;;9.68;2.67;;;;;;;5.13;100.00;103487.38;6248983;22;20020;-79
2022/01/23 03:00:49;;;;;;;4.63;2.88;;;;;;;5.14;100.00;103489.16;6235998;22;20019;-79
2022/01/23 03:03:41;;;;;;;7.55;3.10;;;;;;;5.14;100.00;103495.31;6276617;22;20027;-81
2022/01/23 03:06:54;;;;;;;8.35;3.05;;;;;;;5.13;100.00;103484.75;6200263;22;20024;-79
2022/01/23 03:09:54;;;;;;;9.32;3.22;;;;;;;5.12;100.00;103489.03;6249696;22;20031;-80
2022/01/23 03:15:10;;;;;;;3.80;2.92;;;;;;;5.11;100.00;103489.88;6225329;22;20020;-79
2022/01/23 03:31:32;;;;;;;3.92;3.30;;;;;;;5.08;100.00;103487.97;6270332;22;20354;-80
2022/01/23 03:34:01;;;;;;;9.43;4.03;;;;;;;5.10;100.00;103480.19;6245193;22;20015;-80
2022/01/23 03:36:29;;;;;;;11.75;3.75;;;;;;;5.09;100.00;103486.25;6257755;22;20026;-79
2022/01/23 03:39:00;;;;;;;;;;;;;;;5.06;100.00;103488.63;6282433;22;20446;-79
2022/01/23 03:41:29;;;;;;;6.18;4.03;;;;;;;5.06;100.00;103488.63;6248190;22;20450;-79
2022/01/23 03:43:57;;;;;;;6.15;3.38;;;;;;;5.04;100.00;103480.69;6253291;22;20000;-80
2022/01/23 03:49:31;;;;;;;17.05;5.32;;;;;;;5.02;100.00;103479.69;6275954;22;20019;-81
2022/01/23 03:52:39;;;;;;;7.80;4.22;;;;;;;5.02;100.00;103479.69;6218631;22;20024;-79
2022/01/23 03:55:08;;;;;;;8.38;4.40;;;;;;;5.03;100.00;103475.38;6278047;22;20030;-79
2022/01/23 03:57:38;;;;;;;4.80;3.67;;;;;;;5.02;100.00;103481.41;6273651;22;20026;-80
2022/01/23 04:00:07;;;;;;;8.63;4.00;;;;;;;5.02;100.00;103484.91;6275198;22;20078;-80
2022/01/23 04:02:46;;;;;;;12.15;5.03;;;;;;;5.00;100.00;103483.91;6230272;22;20015;-80
2022/01/23 04:05:22;;;;;;;5.13;4.10;;;;;;;5.03;100.00;103491.97;6267881;22;20133;-81
2022/01/23 04:07:51;;;;;;;5.63;3.55;;;;;;;5.05;100.00;103487.75;6281338;22;20023;-82
2022/01/23 04:10:23;;;;;;;5.57;3.58;;;;;;;5.06;100.00;103488.63;6240924;22;20034;-80
2022/01/23 04:13:07;;;;;;;7.57;3.95;;;;;;;5.07;100.00;103495.69;6167463;22;20476;-79
2022/01/23 04:15:50;;;;;;;8.75;3.97;;;;;;;5.07;100.00;103499.19;6230358;22;20433;-79
2022/01/23 04:21:14;;;;;;;7.28;3.97;;;;;;;5.05;100.00;103492.06;6220188;22;20019;-80
2022/01/23 04:32:22;;;;;;;11.95;4.07;;;;;;;5.06;100.00;103497.38;6211911;22;20026;-80
2022/01/23 04:46:19;;;;;;;6.88;4.25;;;;;;;5.06;100.00;103497.38;6256054;22;20031;-80
2022/01/23 04:59:31;;;;;;;;;;;;;;;5.07;100.00;103501.81;6282691;22;20027;-79
2022/01/23 05:00:04;;;;;;;7.75;4.28;;;;;;;5.01;100.00;103496.19;6276527;22;20031;-78
2022/01/23 05:05:03;;;;;;;6.65;3.55;;;;;;;4.99;100.00;103500.41;6262628;22;19915;-79
2022/01/23 05:07:45;;;;;;;6.63;3.83;;;;;;;5.00;100.00;103502.19;6272581;22;20018;-79
2022/01/23 05:10:14;;;;;;;8.90;5.15;;;;;;;5.02;100.00;103492.75;6247848;22;20389;-80
2022/01/23 05:13:02;;;;;;;13.70;4.70;;;;;;;5.02;100.00;103497.97;6229205;22;20015;-79
2022/01/23 05:15:34;;;;;;;5.82;4.00;;;;;;;5.04;100.00;103492.84;6300801;22;20015;-81
2022/01/23 05:18:03;;;;;;;8.38;4.50;;;;;;;5.02;100.00;103492.75;6274798;22;20034;-80
2022/01/23 05:20:32;;;;;;;6.30;4.30;;;;;;;5.01;100.00;103492.63;6219671;22;20018;-78
2022/01/23 05:23:06;;;;;;;7.18;4.53;;;;;;;5.02;100.00;103503.19;6217382;22;20027;-81
2022/01/23 05:25:39;;;;;;;11.05;4.57;;;;;;;5.02;100.00;103507.53;6223049;22;20016;-80
2022/01/23 05:28:08;;;;;;;7.93;4.10;;;;;;;5.01;100.00;103513.53;6225578;22;20023;-80
2022/01/23 05:30:38;;;;;;;7.47;4.20;;;;;;;5.01;100.00;103516.16;6282979;22;20241;-80
2022/01/23 05:33:06;;;;;;;8.40;4.00;;;;;;;5.00;100.00;103512.66;6276586;22;20067;-80
2022/01/23 05:35:37;;;;;;;5.68;3.95;;;;;;;4.99;100.00;103518.69;6279274;22;20042;-79
2022/01/23 05:38:06;;;;;;;10.27;3.97;;;;;;;5.00;100.00;103509.13;6212685;22;20023;-80
2022/01/23 05:40:38;;;;;;;5.80;4.10;;;;;;;4.99;100.00;103516.06;6218753;22;20022;-79
2022/01/23 05:43:07;;;;;;;7.65;3.55;;;;;;;5.00;100.00;103509.13;6266815;22;20023;-78
2022/01/23 05:45:41;;;;;;;10.18;5.00;;;;;;;4.98;100.00;103509.03;6230352;22;20453;-80
2022/01/23 05:48:10;;;;;;;;;;;;;;;4.97;100.00;103514.13;6273097;22;20020;-79
2022/01/23 05:50:54;;;;;;;8.45;4.22;;;;;;;4.94;100.00;103519.19;6260416;22;19915;-80
2022/01/23 05:53:41;;;;;;;4.63;3.63;;;;;;;4.91;100.00;103518.94;6257145;22;20016;-79
2022/01/23 05:56:25;;;;;;;9.90;5.03;;;;;;;4.89;100.00;103511.91;6259916;22;20035;-80
2022/01/23 05:59:20;;;;;;;6.35;4.00;;;;;;;4.87;100.00;103515.22;6246784;22;20021;-80
2022/01/23 06:01:55;;;;;;;6.88;4.30;;;;;;;4.84;100.00;103512.41;6216144;22;20035;-80
2022/01/23 06:04:37;;;;;;;8.63;4.20;;;;;;;4.84;100.00;103512.41;6280985;22;20012;-80
2022/01/23 06:07:21;;;;;;;11.63;4.50;;;;;;;4.83;100.00;103513.19;6237535;22;20168;-79
2022/01/23 06:09:59;;;;;;;7.72;4.07;;;;;;;4.81;100.00;103518.31;6219528;22;20016;-80
2022/01/23 06:12:27;;;;;;;5.40;4.47;;;;;;;4.81;100.00;103509.56;6278864;22;20389;-80
2022/01/23 06:14:56;;;;;;;6.55;3.60;;;;;;;4.79;100.00;103509.47;6304032;22;20016;-80
2022/01/23 06:17:26;;;;;;;10.35;4.15;;;;;;;4.77;100.00;103513.69;6215769;22;20016;-79
2022/01/23 06:20:15;;;;;;;9.48;4.53;;;;;;;4.78;100.00;103530.25;6173627;22;20023;-79
2022/01/23 06:23:02;;;;;;;10.30;4.43;;;;;;;4.76;100.00;103529.22;6270966;22;20012;-80
2022/01/23 06:25:52;;;;;;;6.85;4.30;;;;;;;4.75;100.00;103514.38;6239654;22;20019;-79
2022/01/23 06:28:35;;;;;;;7.32;4.38;;;;;;;4.72;100.00;103519.38;6271744;22;20020;-80
2022/01/23 06:31:08;;;;;;;7.35;4.50;;;;;;;4.68;100.00;103516.53;6276590;22;20027;-79
2022/01/23 06:33:38;;;;;;;11.10;4.50;;;;;;;4.64;100.00;103519.75;6305870;22;20031;-81
2022/01/23 06:36:09;;;;;;;7.45;4.55;;;;;;;4.61;100.00;103519.53;6247325;22;20020;-80
2022/01/23 06:38:38;;;;;;;6.07;4.18;;;;;;;4.61;100.00;103516.00;6248983;22;20023;-79
2022/01/23 06:41:12;;;;;;;14.18;5.30;;;;;;;4.60;100.00;103519.44;6229710;22;20019;-79
2022/01/23 06:43:59;;;;;;;10.15;5.25;;;;;;;4.60;100.00;103522.94;6279183;22;20012;-79
2022/01/23 06:46:40;;;;;;;8.00;4.93;;;;;;;4.57;100.00;103529.66;6246357;22;20020;-81
2022/01/23 06:49:10;;;;;;;10.38;4.75;;;;;;;4.57;100.00;103521.81;6277383;22;20016;-80
2022/01/23 06:51:42;;;;;;;6.72;5.57;;;;;;;4.57;100.00;103533.16;6217454;22;20446;-80
2022/01/23 06:54:11;;;;;;;9.80;5.00;;;;;;;4.57;100.00;103533.16;6246782;22;20016;-80
2022/01/23 06:56:40;;;;;;;8.13;4.75;;;;;;;4.55;100.00;103537.38;6257710;22;20027;-79
2022/01/23 06:59:09;;;;;;;9.02;5.80;;;;;;;4.57;100.00;103542.72;6277296;22;20027;-80
2022/01/23 07:01:41;;;;;;;11.15;5.97;;;;;;;4.57;100.00;103542.72;6274596;22;20519;-80
2022/01/23 07:04:30;;;;;;;10.35;5.80;;;;;;;4.55;100.00;103534.75;6160450;23;20082;-78
2022/01/23 07:07:08;;;;;;;10.40;5.90;;;;;;;4.55;100.00;103541.69;6156034;23;20510;-80
2022/01/23 07:10:00;;;;;;;7.93;5.53;;;;;;;4.55;100.00;103545.19;6172266;23;20021;-79
2022/01/23 07:12:47;;;;;;;7.32;4.88;;;;;;;4.54;100.00;103548.63;6166323;23;20032;-80
2022/01/23 07:15:22;;;;;;;6.15;5.18;;;;;;;4.55;100.00;103555.66;6193504;23;20223;-80
2022/01/23 07:18:10;;;;;;;5.75;4.28;;;;;;;4.56;100.00;103551.34;6153898;23;20028;-79
2022/01/23 07:20:43;;;;;;;8.32;4.63;;;;;;;4.59;100.00;103567.22;6193169;23;20031;-80
2022/01/23 07:23:22;;;;;;;10.30;4.93;;;;;;;4.60;100.00;103561.22;6194944;23;20025;-79
2022/01/23 07:25:51;;;;;;;10.15;4.93;;;;;;;4.60;100.00;103559.50;6191883;23;20021;-79
2022/01/23 07:28:24;;;;;;;7.80;5.32;;;;;;;4.62;100.00;103565.75;6167761;23;20021;-80
2022/01/23 07:30:58;;;;;;;7.80;4.70;;;;;;;4.64;100.00;103561.53;6156780;23;20020;-80
2022/01/23 07:33:27;;;;;;;10.88;5.13;;;;;;;4.67;100.00;103576.53;6209727;23;20016;-79
2022/01/23 07:35:55;;;;;;;8.40;4.65;;;;;;;4.68;100.00;103576.63;6212049;22;20034;-80
2022/01/23 07:38:25;;;;;;;8.00;4.35;;;;;;;4.69;100.00;103580.16;6237660;22;20229;-80
2022/01/23 07:41:13;;;;;;;7.18;5.05;;;;;;;4.69;100.00;103590.59;6241869;22;20225;-80
2022/01/23 07:44:04;;;;;;;6.15;4.28;;;;;;;4.70;100.00;103595.00;6253955;22;20012;-80
2022/01/23 07:47:06;;;;;;;10.00;4.95;;;;;;;4.72;100.00;103592.53;6186837;22;20019;-80
2022/01/23 07:50:00;;;;;;;8.77;4.95;;;;;;;4.74;100.00;103590.91;6257322;22;20024;-80
2022/01/23 07:53:07;;;;;;;8.40;4.47;;;;;;;4.75;100.00;103593.66;6250232;22;20016;-80
2022/01/23 07:55:49;;;;;;;8.52;5.10;;;;;;;4.76;100.00;103591.94;6269499;22;20638;-79
2022/01/23 07:58:39;;;;;;;9.02;5.15;;;;;;;4.77;100.00;103588.53;6242628;22;20350;-80
2022/01/23 08:01:30;;;;;;;6.82;4.43;;;;;;;4.79;100.00;103594.78;6246330;22;20315;-80
2022/01/23 08:04:19;;;;;;;12.18;4.85;;;;;;;4.80;100.00;103592.28;6174622;22;20015;-78
2022/01/23 08:07:05;;;;;;;4.88;3.78;;;;;;;4.81;100.00;103596.69;6239574;22;20026;-80
2022/01/23 08:10:00;;;;;;;11.30;4.53;;;;;;;4.83;100.00;103594.19;6258572;22;20016;-78
2022/01/23 08:12:30;;;;;;;9.50;4.72;;;;;;;4.85;100.00;103597.81;6211771;22;20023;-80
2022/01/23 08:15:00;;;;;;;6.40;4.18;;;;;;;4.87;100.00;103601.44;6255226;22;20012;-81
2022/01/23 08:17:32;;;;;;;6.78;3.92;;;;;;;4.89;100.00;103599.84;6246961;22;20047;-79
2022/01/23 08:20:03;;;;;;;9.63;4.35;;;;;;;4.93;100.00;103606.19;6251499;22;20019;-79
2022/01/23 08:22:32;;;;;;;9.85;5.07;;;;;;;4.95;100.00;103604.59;6264506;22;20045;-79
2022/01/23 08:25:05;;;;;;;9.57;4.78;;;;;;;4.97;100.00;103608.22;6257233;22;20012;-79
2022/01/23 08:27:34;;;;;;;;;;;;;;;4.95;100.00;103610.72;6241332;22;20305;-79
2022/01/23 08:30:03;;;;;;;4.85;3.63;;;;;;;4.97;100.00;103617.00;6268898;22;20252;-80
2022/01/23 08:32:32;;;;;;;3.80;3.35;;;;;;;5.00;100.00;103625.03;6246609;22;20023;-80
2022/01/23 08:35:01;;;;;;;5.15;3.92;;;;;;;5.03;100.00;103619.13;6252270;22;20026;-80
2022/01/23 08:37:29;;;;;;;4.18;3.45;;;;;;;5.04;100.00;103619.22;6200658;22;20016;-79
2022/01/23 08:39:58;;;;;;;6.80;4.20;;;;;;;5.06;100.00;103620.22;6215878;22;20046;-80
2022/01/23 08:42:26;;;;;;;4.43;3.08;;;;;;;5.09;100.00;103627.38;6275345;22;20027;-80
2022/01/23 08:44:55;;;;;;;4.85;3.17;;;;;;;5.10;100.00;103615.22;6243021;22;20022;-79
2022/01/23 08:47:23;;;;;;;4.18;3.75;;;;;;;5.12;100.00;103626.69;6276151;22;20020;-81
2022/01/23 08:49:53;;;;;;;4.88;3.30;;;;;;;5.15;100.00;103633.03;6253009;22;20019;-79
2022/01/23 08:52:21;;;;;;;5.50;3.40;;;;;;;5.17;100.00;103622.69;6218163;22;20026;-79
2022/01/23 08:54:56;;;;;;;6.13;3.70;;;;;;;5.20;100.00;103630.75;6241648;22;20225;-79
2022/01/23 08:57:25;;;;;;;3.83;3.42;;;;;;;5.23;100.00;103623.13;6269910;22;20019;-79
2022/01/23 08:59:54;;;;;;;4.05;3.38;;;;;;;5.24;100.00;103631.06;6263090;22;20411;-80
2022/01/23 09:02:23;;;;;;;3.83;3.40;;;;;;;5.27;100.00;103632.97;6244393;22;20015;-79
2022/01/23 09:04:54;;;;;;;5.85;3.92;;;;;;;5.31;100.00;103623.66;6216804;22;20028;-79
2022/01/23 09:07:25;;;;;;;4.55;3.65;;;;;;;5.32;100.00;103628.97;6244511;22;20024;-80
2022/01/23 09:10:00;;;;;;;4.10;3.47;;;;;;;5.34;100.00;103626.47;6225042;22;20019;-79
2022/01/23 09:15:09;;;;;;;4.50;3.03;;;;;;;5.39;100.00;103636.47;6275440;22;20015;-79
2022/01/23 09:17:40;;;;;;;7.40;3.83;;;;;;;5.42;100.00;103635.75;6272712;22;20312;-80
2022/01/23 09:20:10;;;;;;;5.50;3.10;;;;;;;5.43;100.00;103633.25;6243417;22;20020;-79
2022/01/23 09:22:40;;;;;;;4.40;3.47;;;;;;;5.45;100.00;103634.25;6185491;23;20024;-80
2022/01/23 09:25:09;;;;;;;5.30;3.45;;;;;;;5.50;100.00;103634.59;6172967;23;20028;-80
2022/01/23 09:27:39;;;;;;;5.20;3.42;;;;;;;5.53;100.00;103647.84;6187755;23;20024;-80
2022/01/23 09:30:17;;;;;;;3.47;3.05;;;;;;;5.57;100.00;103641.13;6231252;23;20035;-80
2022/01/23 09:32:49;;;;;;;3.55;3.05;;;;;;;5.59;100.00;103639.53;6156029;23;20379;-80
2022/01/23 09:35:18;;;;;;;7.55;3.47;;;;;;;5.61;100.00;103641.47;6147493;23;20025;-79
2022/01/23 09:37:46;;;;;;;6.07;2.92;;;;;;;5.66;100.00;103639.16;6128597;23;20031;-80
2022/01/23 09:40:16;;;;;;;4.30;2.72;;;;;;;5.69;100.00;103636.75;6139811;23;20036;-80
2022/01/23 09:42:54;;;;;;;2.78;2.58;;;;;;;5.72;100.00;103647.41;6104238;23;20236;-80
2022/01/23 09:45:25;;;;;;;3.33;3.03;;;;;;;5.74;100.00;103644.91;6157926;23;20095;-79
2022/01/23 09:47:55;;;;;;;3.53;3.10;;;;;;;5.74;100.00;103650.13;6146901;23;20021;-80
2022/01/23 09:50:24;;;;;;;3.33;2.80;;;;;;;5.77;100.00;103646.00;6151311;23;20032;-78
2022/01/23 09:52:54;;;;;;;2.72;2.53;;;;;;;5.79;100.00;103641.78;6165346;23;20020;-79
2022/01/23 09:55:27;;;;;;;3.35;3.05;;;;;;;5.82;100.00;103641.06;6211931;23;20031;-79
2022/01/23 09:57:55;;;;;;;;;;;;;;;5.83;100.00;103648.16;6183502;23;20035;-79
2022/01/23 10:00:30;;;;;;;3.00;2.70;;;;;;;5.85;100.00;103655.28;6215071;23;19934;-80
2022/01/23 10:03:01;;;;;;;3.72;3.42;;;;;;;5.86;100.00;103650.97;6210293;22;20477;-80
2022/01/23 10:05:33;;;;;;;5.82;3.22;;;;;;;5.88;100.00;103648.44;6257065;22;20019;-80
2022/01/23 10:08:02;;;;;;;6.05;2.50;;;;;;;5.90;100.00;103652.06;6259782;22;20015;-79
2022/01/23 10:10:35;;;;;;;4.47;2.40;;;;;;;5.88;100.00;103651.97;6263841;22;20114;-80
2022/01/23 10:13:10;;;;;;;2.53;2.25;;;;;;;5.91;100.00;103649.56;6191482;22;20131;-79
2022/01/23 10:15:39;;;;;;;1.67;1.40;;;;;;;5.90;100.00;103658.22;6255581;22;20034;-80
2022/01/23 10:18:07;;;;;;;1.75;1.65;;;;;;;5.94;100.00;103656.72;6238795;22;20023;-80
2022/01/23 10:20:37;;;;;;;3.60;1.65;;;;;;;5.97;100.00;103654.31;6270858;22;20030;-79
2022/01/23 10:23:06;;;;;;;1.60;1.50;;;;;;;5.98;100.00;103653.53;6262522;22;20042;-81
2022/01/23 10:25:41;;;;;;;1.48;1.38;;;;;;;5.99;100.00;103658.88;6223163;22;20026;-80
2022/01/23 10:28:16;;;;;;;3.00;1.52;;;;;;;6.04;100.00;103653.94;6263309;22;20389;-80
2022/01/23 10:30:52;;;;;;;1.50;1.40;;;;;;;6.06;100.00;103654.94;6272415;22;20027;-79
2022/01/23 10:33:28;;;;;;;1.38;1.27;;;;;;;6.11;100.00;103650.03;6276845;22;20409;-80
2022/01/23 10:36:06;;;;;;;1.00;0.98;;;;;;;6.09;100.00;103649.94;6267977;22;20450;-80
2022/01/23 10:39:01;;;;;;;1.33;1.23;;;;;;;6.13;100.00;103653.66;6241250;22;20046;-80
2022/01/23 10:50:12;;;;;;;0.70;0.70;;;;;;;6.19;100.00;103640.97;6291582;22;20016;-80
2022/01/23 10:52:45;;;;;;;1.15;0.70;;;;;;;6.24;100.00;103650.03;6279660;22;20008;-80
2022/01/23 10:55:13;;;;;;;0.88;0.60;;;;;;;6.29;100.00;103648.59;6274274;22;20243;-78
2022/01/23 10:57:44;;;;;;;0.65;0.60;;;;;;;6.38;100.00;103659.69;6281089;22;20012;-81
2022/01/23 11:00:36;;;;;;;0.60;0.60;;;;;;;6.47;100.00;103653.25;6240772;22;20493;-79
2022/01/23 11:03:20;;;;;;;1.70;0.95;;;;;;;6.57;100.00;103650.41;6275349;22;20019;-79
2022/01/23 11:05:52;;;;;;;1.48;1.08;;;;;;;6.70;100.00;103649.50;6231977;22;20338;-80
2022/01/23 11:08:23;;;;;;;1.90;0.90;;;;;;;6.86;100.00;103636.53;6264899;22;20027;-79
2022/01/23 11:11:02;;;;;;;;;;;;;;;6.90;100.00;103635.00;6271893;22;20016;-80
2022/01/23 11:19:28;;;;;;;1.85;1.30;;;;;;;6.77;100.00;103639.50;6270550;22;20250;-80
2022/01/23 11:21:59;;;;;;;3.40;1.20;;;;;;;6.66;100.00;103640.53;6265459;22;20019;-80
2022/01/23 11:24:45;;;;;;;2.60;0.88;;;;;;;6.61;100.00;103639.31;6274352;22;20034;-81
2022/01/23 11:27:20;;;;;;;1.05;1.00;;;;;;;6.55;100.00;103645.06;6273869;22;20240;-80
2022/01/23 11:29:59;;;;;;;1.10;1.00;;;;;;;6.50;100.00;103643.84;6263913;22;20026;-79
2022/01/23 11:32:34;;;;;;;1.17;0.63;;;;;;;6.43;100.00;103647.81;6212341;22;20035;-80
2022/01/23 11:35:09;;;;;;;0.70;0.70;;;;;;;6.39;100.00;103639.63;6257115;22;20478;-80
2022/01/23 11:37:46;;;;;;;2.92;0.80;;;;;;;6.39;100.00;103634.38;6260889;22;20043;-79
2022/01/23 11:50:34;;;;;;;0.70;0.70;;;;;;;6.36;100.00;103642.97;6230715;22;20046;-81
2022/01/23 11:54:42;;;;;;;0.70;0.70;;;;;;;6.29;100.00;103632.00;6262751;22;20434;-80
2022/01/23 11:57:40;;;;;;;0.98;0.98;;;;;;;6.31;100.00;103623.41;6202493;22;20023;-79
2022/01/23 12:00:23;;;;;;;0.73;0.73;;;;;;;6.33;100.00;103624.44;6229264;22;20646;-79
2022/01/23 12:03:25;;;;;;;1.48;0.70;;;;;;;6.35;100.00;103624.53;6272690;22;20357;-79
2022/01/23 12:06:11;;;;;;;4.18;1.73;;;;;;;6.37;100.00;103625.53;6166619;22;20349;-80
2022/01/23 12:08:40;;;;;;;3.17;1.05;;;;;;;6.37;100.00;103620.28;6264261;22;20445;-79
2022/01/23 12:17:05;;;;;;;1.10;1.10;;;;;;;6.33;100.00;103619.22;6276736;22;20016;-81
2022/01/23 12:19:44;;;;;;;1.98;0.70;;;;;;;6.33;100.00;103615.66;6266530;22;20530;-79
2022/01/23 12:22:45;;;;;;;1.65;0.80;;;;;;;6.33;100.00;103618.28;6240583;22;20422;-79
2022/01/23 12:25:21;;;;;;;0.90;0.90;;;;;;;6.30;100.00;103619.00;6258256;22;20019;-80
2022/01/23 12:28:14;;;;;;;1.08;1.02;;;;;;;6.29;100.00;103619.78;6274306;22;20016;-79
2022/01/23 12:30:44;;;;;;;1.50;0.80;;;;;;;6.30;100.00;103610.25;6216831;22;20626;-81
2022/01/23 12:33:29;;;;;;;0.90;0.90;;;;;;;6.29;100.00;103613.66;6271057;22;20327;-79
2022/01/23 12:36:26;;;;;;;1.17;1.02;;;;;;;6.32;100.00;103613.88;6250751;22;20353;-79
2022/01/23 12:39:06;;;;;;;1.15;0.90;;;;;;;6.32;100.00;103616.50;6256094;22;20342;-79
2022/01/23 12:41:53;;;;;;;2.63;1.10;;;;;;;6.31;100.00;103614.66;6264802;22;20019;-80
2022/01/23 12:44:26;;;;;;;0.88;0.88;;;;;;;6.31;100.00;103614.66;6297209;22;20011;-79
2022/01/23 12:46:58;;;;;;;2.53;1.33;;;;;;;6.31;100.00;103605.09;6276165;22;20015;-79
2022/01/23 12:49:45;;;;;;;1.42;1.33;;;;;;;6.35;100.00;103606.19;6235735;22;20016;-81
2022/01/23 12:52:17;;;;;;;1.02;1.02;;;;;;;6.34;100.00;103607.03;6246725;22;20026;-80
2022/01/23 12:54:52;;;;;;;3.08;1.15;;;;;;;6.37;100.00;103605.50;6252811;22;20020;-79
2022/01/23 12:57:40;;;;;;;2.28;1.30;;;;;;;6.37;100.00;103602.88;6272481;22;20350;-79
2022/01/23 13:00:16;;;;;;;2.28;1.10;;;;;;;6.37;100.00;103597.66;6238209;22;20015;-79
2022/01/23 13:02:50;;;;;;;1.30;1.30;;;;;;;6.38;100.00;103595.94;6264039;22;20458;-79
2022/01/23 13:05:20;;;;;;;1.63;1.20;;;;;;;6.41;100.00;103598.75;6271977;22;20023;-80
2022/01/23 13:08:08;;;;;;;1.50;1.40;;;;;;;6.41;100.00;103594.41;6242916;22;20027;-80
2022/01/23 13:19:15;;;;;;;2.17;1.40;;;;;;;6.48;100.00;103582.59;6275071;22;20023;-79
2022/01/23 13:30:19;;;;;;;1.55;0.82;;;;;;;6.49;100.00;103583.53;6269273;22;20026;-79
2022/01/23 13:32:51;;;;;;;1.55;1.02;;;;;;;6.48;100.00;103572.13;6249761;22;20035;-80
2022/01/23 13:35:21;;;;;;;2.10;1.50;;;;;;;6.50;100.00;103580.97;6233323;22;20435;-80
2022/01/23 13:37:58;;;;;;;1.60;1.50;;;;;;;6.52;100.00;103578.47;6205175;22;20028;-80
2022/01/23 13:40:36;;;;;;;1.80;1.70;;;;;;;6.51;100.00;103580.19;6234281;22;20023;-79
2022/01/23 13:51:35;;;;;;;3.90;2.35;;;;;;;6.54;100.00;103568.97;6255547;22;20023;-79
2022/01/23 14:02:27;;;;;;;2.72;1.77;;;;;;;6.45;100.00;103566.69;6278440;22;20019;-79
2022/01/23 14:05:14;;;;;;;2.05;1.88;;;;;;;6.44;100.00;103571.00;6233326;22;20453;-79
2022/01/23 14:07:53;;;;;;;2.22;2.03;;;;;;;6.45;100.00;103564.09;6250414;22;20028;-79
2022/01/23 14:10:31;;;;;;;2.10;1.98;;;;;;;6.44;100.00;103564.88;6251475;22;20030;-82
2022/01/23 14:13:26;;;;;;;3.38;2.50;;;;;;;6.44;100.00;103563.16;6276648;22;20015;-88
2022/01/23 14:15:59;;;;;;;5.63;3.78;;;;;;;6.44;100.00;103575.34;6246885;22;20292;-88
2022/01/23 14:18:31;;;;;;;5.43;2.63;;;;;;;6.40;100.00;103569.00;6178723;22;20480;-87
2022/01/23 14:21:03;;;;;;;2.78;2.30;;;;;;;6.39;100.00;103576.75;6258720;22;20140;-88
2022/01/23 14:23:34;;;;;;;2.33;1.67;;;;;;;6.38;100.00;103575.88;6283518;22;20535;-87
2022/01/23 14:26:15;;;;;;;3.25;2.13;;;;;;;6.37;100.00;103575.75;6193729;22;20023;-79
2022/01/23 14:28:50;;;;;;;2.42;1.80;;;;;;;6.36;100.00;103587.06;6265727;22;20042;-79
2022/01/23 14:31:25;;;;;;;1.98;1.85;;;;;;;6.34;100.00;103578.22;6280001;22;20020;-80
2022/01/23 14:33:58;;;;;;;2.05;1.90;;;;;;;6.31;100.00;103578.00;6266012;22;20058;-82
2022/01/23 14:36:34;;;;;;;2.05;1.92;;;;;;;6.30;100.00;103584.97;6221130;22;20020;-81
2022/01/23 14:39:06;;;;;;;2.28;2.08;;;;;;;6.28;100.00;103575.19;6243869;22;20020;-80
2022/01/23 14:41:40;;;;;;;4.30;2.22;;;;;;;6.28;100.00;103580.44;6286699;22;20015;-80
2022/01/23 14:44:21;;;;;;;2.78;2.20;;;;;;;6.27;100.00;103592.59;6267893;22;20024;-81
2022/01/23 14:46:53;;;;;;;2.35;2.03;;;;;;;6.24;100.00;103581.94;6259813;22;20528;-80
2022/01/23 14:49:25;;;;;;;3.03;1.88;;;;;;;6.24;100.00;103589.81;6273282;22;20024;-80
2022/01/23 14:51:56;;;;;;;1.92;1.83;;;;;;;6.24;100.00;103598.56;6267079;22;20050;-80
2022/01/23 14:54:28;;;;;;;2.00;1.80;;;;;;;6.23;100.00;103599.34;6236084;22;20028;-79
2022/01/23 14:57:00;;;;;;;4.78;1.50;;;;;;;6.23;100.00;103601.06;6257140;22;20020;-79
2022/01/23 14:59:30;;;;;;;2.58;1.30;;;;;;;6.22;100.00;103594.94;6252214;22;20353;-79
2022/01/23 15:02:00;;;;;;;2.80;2.42;;;;;;;6.20;100.00;103588.69;6277349;22;20031;-80
2022/01/23 15:04:46;;;;;;;3.85;2.10;;;;;;;6.20;100.00;103593.00;6245471;22;20031;-79
2022/01/23 15:07:17;;;;;;;2.35;1.80;;;;;;;6.19;100.00;103596.44;6276370;22;20024;-80
2022/01/23 15:09:49;;;;;;;2.13;1.77;;;;;;;6.18;100.00;103598.16;6253820;22;20433;-78
2022/01/23 15:12:18;;;;;;;2.85;2.33;;;;;;;6.19;100.00;103601.69;6303517;22;20019;-80
2022/01/23 15:14:50;;;;;;;2.85;2.65;;;;;;;6.18;100.00;103597.25;6235475;22;20527;-80
2022/01/23 15:17:20;;;;;;;2.33;1.92;;;;;;;6.20;100.00;103603.47;6220074;22;20016;-80
2022/01/23 15:19:48;;;;;;;2.17;1.97;;;;;;;6.19;100.00;103599.97;6271051;22;20350;-80